createdAt,value
2018-03-18T00:00:46.574Z,8.47
2018-03-18T00:03:12.958Z,7.30
2018-03-18T00:05:39.198Z,8.70
2018-03-18T00:08:05.396Z,10.83
2018-03-18T00:10:31.590Z,8.07
2018-03-18T00:12:57.877Z,10.63
2018-03-18T00:15:24.014Z,10.10
2018-03-18T00:17:50.221Z,8.77
2018-03-18T00:20:16.367Z,10.50
2018-03-18T00:22:43.477Z,13.33
2018-03-18T00:25:09.743Z,9.97
2018-03-18T00:27:35.924Z,8.13
2018-03-18T00:30:02.132Z,13.37
2018-03-18T00:32:28.325Z,13.13
2018-03-18T00:34:54.466Z,13.87
2018-03-18T00:37:20.657Z,15.50
2018-03-18T00:39:46.818Z,13.93
2018-03-18T00:42:13.043Z,16.80
2018-03-18T00:44:39.192Z,16.23
2018-03-18T00:47:05.364Z,13.73
2018-03-18T00:49:38.540Z,16.40
2018-03-18T00:52:04.732Z,12.13
2018-03-18T00:54:30.918Z,16.93
2018-03-18T00:56:57.111Z,13.93
2018-03-18T00:59:23.272Z,14.47
2018-03-18T01:01:49.496Z,15.13
2018-03-18T01:04:15.707Z,15.53
2018-03-18T01:06:41.880Z,17.73
2018-03-18T01:09:08.508Z,14.50
2018-03-18T01:11:34.715Z,15.60
2018-03-18T01:14:00.888Z,15.03
2018-03-18T01:16:27.069Z,13.43
2018-03-18T01:18:53.284Z,15.53
2018-03-18T01:21:19.508Z,11.60
2018-03-18T01:23:45.650Z,12.07
2018-03-18T01:26:11.855Z,9.60
2018-03-18T01:28:38.038Z,9.97
2018-03-18T01:31:04.200Z,10.80
2018-03-18T01:33:30.371Z,9.77
2018-03-18T01:35:56.520Z,9.37
2018-03-18T01:38:22.729Z,7.57
2018-03-18T01:40:48.916Z,9.23
2018-03-18T01:43:15.112Z,8.30
2018-03-18T01:45:41.322Z,9.00
2018-03-18T01:48:07.521Z,10.10
2018-03-18T01:50:33.688Z,6.17
2018-03-18T01:53:11.971Z,7.07
2018-03-18T01:55:38.104Z,8.90
2018-03-18T01:58:04.358Z,10.00
2018-03-18T02:00:30.582Z,8.67
2018-03-18T02:02:56.819Z,9.40
2018-03-18T02:05:23.020Z,10.57
2018-03-18T02:07:49.216Z,9.53
2018-03-18T02:10:15.380Z,8.53
2018-03-18T02:12:41.572Z,9.87
2018-03-18T02:15:14.632Z,9.20
2018-03-18T02:17:40.806Z,10.47
2018-03-18T02:20:07.042Z,11.07
2018-03-18T02:22:33.248Z,9.13
2018-03-18T02:24:59.387Z,11.00
2018-03-18T02:27:25.619Z,6.53
2018-03-18T02:29:51.788Z,6.47
2018-03-18T02:32:18.010Z,8.87
2018-03-18T02:34:44.147Z,7.40
2018-03-18T02:37:10.305Z,8.70
2018-03-18T02:39:36.513Z,10.93
2018-03-18T02:42:02.743Z,10.47
2018-03-18T02:44:28.899Z,8.43
2018-03-18T02:46:55.080Z,7.90
2018-03-18T02:49:21.289Z,10.77
2018-03-18T02:51:47.536Z,8.70
2018-03-18T02:54:13.686Z,7.53
2018-03-18T02:56:39.844Z,7.77
2018-03-18T02:59:06.052Z,7.63
2018-03-18T03:01:32.213Z,8.63
2018-03-18T03:03:58.424Z,9.70
2018-03-18T03:06:24.568Z,9.87
2018-03-18T03:08:50.813Z,9.03
2018-03-18T03:11:17.045Z,9.60
2018-03-18T03:13:43.259Z,8.17
2018-03-18T03:16:09.434Z,8.57
2018-03-18T03:18:35.614Z,8.00
2018-03-18T03:21:01.868Z,10.10
2018-03-18T03:23:28.035Z,7.57
2018-03-18T03:25:54.215Z,10.37
2018-03-18T03:28:20.419Z,8.33
2018-03-18T03:30:46.659Z,7.77
2018-03-18T03:33:12.868Z,8.10
2018-03-18T03:35:39.047Z,9.50
2018-03-18T03:38:05.268Z,7.37
2018-03-18T03:40:31.432Z,8.93
2018-03-18T03:42:57.658Z,8.27
2018-03-18T03:45:23.880Z,8.93
2018-03-18T03:47:50.031Z,8.60
2018-03-18T03:50:16.164Z,9.20
2018-03-18T03:52:42.412Z,9.90
2018-03-18T03:55:08.547Z,8.50
2018-03-18T03:57:34.743Z,9.83
2018-03-18T04:00:00.883Z,9.73
2018-03-18T04:02:27.100Z,7.97
2018-03-18T04:04:53.623Z,7.27
2018-03-18T04:07:19.818Z,7.30
2018-03-18T04:09:45.976Z,7.50
2018-03-18T04:12:12.152Z,9.43
2018-03-18T04:14:38.328Z,9.30
2018-03-18T04:17:04.523Z,7.93
2018-03-18T04:19:30.670Z,7.90
2018-03-18T04:21:56.907Z,10.07
2018-03-18T04:24:23.073Z,7.57
2018-03-18T04:26:49.239Z,9.83
2018-03-18T04:29:15.452Z,9.20
2018-03-18T04:31:41.626Z,11.30
2018-03-18T04:34:07.876Z,9.93
2018-03-18T04:36:34.044Z,6.47
2018-03-18T04:39:00.249Z,8.93
2018-03-18T04:41:26.467Z,11.80
2018-03-18T04:43:52.688Z,7.53
2018-03-18T04:46:18.865Z,8.67
2018-03-18T04:48:45.071Z,10.27
2018-03-18T04:51:11.197Z,9.40
2018-03-18T04:53:37.454Z,11.67
2018-03-18T04:56:03.641Z,8.13
2018-03-18T04:58:29.779Z,10.40
2018-03-18T05:00:55.984Z,10.13
2018-03-18T05:03:22.242Z,10.37
2018-03-18T05:05:48.504Z,8.63
2018-03-18T05:08:14.692Z,10.53
2018-03-18T05:10:40.845Z,12.43
2018-03-18T05:13:07.041Z,8.03
2018-03-18T05:15:33.285Z,8.50
2018-03-18T05:17:59.439Z,9.80
2018-03-18T05:20:25.572Z,10.40
2018-03-18T05:22:51.829Z,11.90
2018-03-18T05:25:18.031Z,10.77
2018-03-18T05:27:44.239Z,9.97
2018-03-18T05:30:10.404Z,9.87
2018-03-18T05:32:36.636Z,9.10
2018-03-18T05:35:02.801Z,10.20
2018-03-18T05:37:28.991Z,11.00
2018-03-18T05:39:55.193Z,8.73
2018-03-18T05:42:21.407Z,10.03
2018-03-18T05:44:47.554Z,8.37
2018-03-18T05:47:13.700Z,9.77
2018-03-18T05:49:39.862Z,9.43
2018-03-18T05:52:06.083Z,8.73
2018-03-18T05:54:32.299Z,9.37
2018-03-18T05:56:58.460Z,10.70
2018-03-18T05:59:24.611Z,9.00
2018-03-18T06:01:50.900Z,10.43
2018-03-18T06:04:17.064Z,9.13
2018-03-18T06:06:43.279Z,8.27
2018-03-18T06:09:09.458Z,10.20
2018-03-18T06:11:35.697Z,9.87
2018-03-18T06:14:01.933Z,9.67
2018-03-18T06:16:28.163Z,9.00
2018-03-18T06:18:54.427Z,8.70
2018-03-18T06:21:20.582Z,8.80
2018-03-18T06:23:46.726Z,7.70
2018-03-18T06:26:12.927Z,9.40
2018-03-18T06:28:40.114Z,8.77
2018-03-18T06:31:06.272Z,8.77
2018-03-18T06:33:32.532Z,9.23
2018-03-18T06:35:58.694Z,7.47
2018-03-18T06:38:24.848Z,7.80
2018-03-18T06:40:51.098Z,8.43
2018-03-18T06:43:17.417Z,8.47
2018-03-18T06:45:43.611Z,9.13
2018-03-18T06:48:09.906Z,9.17
2018-03-18T06:50:36.095Z,10.60
2018-03-18T06:53:02.321Z,8.77
2018-03-18T06:55:28.483Z,8.87
2018-03-18T06:57:54.627Z,6.83
2018-03-18T07:00:20.836Z,8.47
2018-03-18T07:02:47.057Z,6.80
2018-03-18T07:05:13.241Z,6.57
2018-03-18T07:07:39.430Z,7.97
2018-03-18T07:10:05.646Z,7.53
2018-03-18T07:12:31.915Z,6.90
2018-03-18T07:14:58.083Z,7.70
2018-03-18T07:17:24.687Z,7.17
2018-03-18T07:19:50.887Z,7.77
2018-03-18T07:22:17.398Z,7.30
2018-03-18T07:24:43.697Z,7.00
2018-03-18T07:27:09.935Z,6.57
2018-03-18T07:29:36.166Z,7.03
2018-03-18T07:32:02.345Z,7.27
2018-03-18T07:34:28.621Z,9.90
2018-03-18T07:36:54.784Z,7.30
2018-03-18T07:39:21.046Z,7.03
2018-03-18T07:41:47.311Z,5.53
2018-03-18T07:44:13.513Z,7.73
2018-03-18T07:46:47.207Z,7.70
2018-03-18T07:49:14.606Z,7.87
2018-03-18T07:51:41.595Z,8.00
2018-03-18T07:54:08.415Z,6.63
2018-03-18T07:56:34.931Z,7.63
2018-03-18T07:59:01.098Z,6.43
2018-03-18T08:01:27.284Z,7.13
2018-03-18T08:03:53.466Z,5.83
2018-03-18T08:06:19.976Z,7.23
2018-03-18T08:08:46.254Z,7.07
2018-03-18T08:11:12.489Z,7.90
2018-03-18T08:13:39.567Z,7.50
2018-03-18T08:16:07.347Z,8.03
2018-03-18T08:18:33.473Z,6.30
2018-03-18T08:20:59.587Z,5.10
2018-03-18T08:23:25.788Z,6.70
2018-03-18T08:25:51.918Z,6.30
2018-03-18T08:28:18.019Z,7.80
2018-03-18T08:30:44.215Z,6.63
2018-03-18T08:33:10.405Z,6.77
2018-03-18T08:35:36.574Z,7.43
2018-03-18T08:38:02.708Z,7.57
2018-03-18T08:40:28.854Z,6.57
2018-03-18T08:42:55.095Z,7.27
2018-03-18T08:45:21.205Z,5.53
2018-03-18T08:47:47.334Z,7.73
2018-03-18T08:50:13.451Z,7.80
2018-03-18T08:52:39.580Z,6.97
2018-03-18T08:55:05.767Z,8.73
2018-03-18T08:57:31.902Z,6.77
2018-03-18T08:59:58.059Z,7.60
2018-03-18T09:02:24.278Z,7.70
2018-03-18T09:04:50.423Z,7.07
2018-03-18T09:07:16.547Z,4.33
2018-03-18T09:09:42.679Z,7.70
2018-03-18T09:12:08.860Z,8.57
2018-03-18T09:14:35.011Z,7.73
2018-03-18T09:17:01.162Z,6.23
2018-03-18T09:19:27.302Z,7.13
2018-03-18T09:21:53.469Z,7.07
2018-03-18T09:24:19.714Z,6.47
2018-03-18T09:26:45.969Z,5.80
2018-03-18T09:29:12.127Z,7.73
2018-03-18T09:31:38.282Z,7.53
2018-03-18T09:34:04.502Z,6.13
2018-03-18T09:36:30.665Z,6.93
2018-03-18T09:38:56.972Z,6.63
2018-03-18T09:41:23.201Z,6.67
2018-03-18T09:43:49.401Z,7.27
2018-03-18T09:46:15.625Z,7.47
2018-03-18T09:48:41.796Z,7.03
2018-03-18T09:51:08.065Z,6.57
2018-03-18T09:53:34.278Z,6.27
2018-03-18T09:56:00.445Z,7.07
2018-03-18T09:58:26.701Z,6.67
2018-03-18T10:00:52.833Z,7.23
2018-03-18T10:03:19.083Z,7.40
2018-03-18T10:05:45.338Z,8.07
2018-03-18T10:08:12.344Z,7.50
2018-03-18T10:10:39.333Z,8.10
2018-03-18T10:13:06.507Z,8.30
2018-03-18T10:21:38.205Z,4.83
2018-03-18T10:27:08.751Z,6.67
2018-03-18T10:29:35.248Z,8.00
2018-03-18T10:38:06.699Z,8.40
2018-03-18T10:47:02.920Z,11.07
2018-03-18T10:49:46.654Z,10.80
2018-03-18T10:52:15.026Z,8.47
2018-03-18T10:57:38.306Z,6.40
2018-03-18T11:00:04.614Z,8.50
2018-03-18T11:02:30.818Z,7.43
2018-03-18T11:04:57.086Z,8.60
2018-03-18T11:10:25.879Z,7.57
2018-03-18T11:12:53.134Z,7.67
2018-03-18T11:15:19.365Z,7.77
2018-03-18T11:17:45.871Z,7.57
2018-03-18T11:20:12.131Z,7.83
2018-03-18T11:22:38.403Z,8.90
2018-03-18T11:25:04.691Z,7.93
2018-03-18T11:27:30.924Z,10.87
2018-03-18T11:29:57.097Z,8.87
2018-03-18T11:32:23.309Z,7.17
2018-03-18T11:34:49.527Z,9.23
2018-03-18T11:37:15.751Z,7.07
2018-03-18T11:39:42.031Z,7.60
2018-03-18T11:42:08.334Z,8.60
2018-03-18T11:44:34.845Z,7.30
2018-03-18T11:47:01.383Z,8.83
2018-03-18T11:49:27.976Z,8.30
2018-03-18T11:51:54.189Z,8.73
2018-03-18T11:54:20.448Z,7.97
2018-03-18T11:56:46.682Z,7.77
2018-03-18T11:59:13.326Z,8.57
2018-03-18T12:01:40.880Z,7.43
2018-03-18T12:04:27.500Z,10.20
2018-03-18T12:06:53.704Z,7.33
2018-03-18T12:09:20.279Z,8.17
2018-03-18T12:11:46.684Z,7.60
2018-03-18T12:17:10.514Z,7.43
2018-03-18T12:19:36.788Z,8.57
2018-03-18T12:22:03.519Z,8.53
2018-03-18T12:24:29.772Z,8.00
2018-03-18T12:26:56.104Z,8.57
2018-03-18T12:29:22.441Z,8.30
2018-03-18T12:31:48.673Z,7.93
2018-03-18T12:34:14.824Z,7.67
2018-03-18T12:36:41.886Z,8.87
2018-03-18T12:39:08.129Z,6.27
2018-03-18T12:41:34.307Z,8.67
2018-03-18T12:44:00.492Z,7.53
2018-03-18T12:46:26.719Z,8.00
2018-03-18T12:48:52.941Z,8.03
2018-03-18T12:51:19.217Z,8.27
2018-03-18T12:53:45.448Z,7.20
2018-03-18T12:56:11.693Z,9.10
2018-03-18T12:58:37.915Z,8.20
2018-03-18T13:01:04.147Z,8.70
2018-03-18T13:03:30.303Z,7.90
2018-03-18T13:06:03.463Z,7.77
2018-03-18T13:08:29.654Z,7.23
2018-03-18T13:10:57.602Z,6.60
2018-03-18T13:13:23.824Z,8.87
2018-03-18T13:15:50.177Z,7.53
2018-03-18T13:18:16.415Z,7.97
2018-03-18T13:20:44.187Z,8.63
2018-03-18T13:23:10.368Z,9.37
2018-03-18T13:25:36.536Z,7.70
2018-03-18T13:28:02.711Z,8.17
2018-03-18T13:30:28.934Z,7.87
2018-03-18T13:32:55.110Z,9.23
2018-03-18T13:35:21.683Z,8.90
2018-03-18T13:37:47.973Z,8.60
2018-03-18T13:40:14.707Z,8.60
2018-03-18T13:42:40.956Z,8.37
2018-03-18T13:45:07.179Z,4.73
2018-03-18T13:47:33.357Z,8.10
2018-03-18T13:49:59.610Z,9.23
2018-03-18T13:52:25.816Z,7.57
2018-03-18T13:54:52.227Z,7.57
2018-03-18T13:57:18.421Z,7.23
2018-03-18T13:59:44.644Z,7.97
2018-03-18T14:02:10.934Z,8.73
2018-03-18T14:04:37.135Z,9.17
2018-03-18T14:07:03.356Z,7.97
2018-03-18T14:09:29.586Z,7.50
2018-03-18T14:11:55.839Z,8.50
2018-03-18T14:14:22.141Z,9.67
2018-03-18T14:16:48.925Z,8.27
2018-03-18T14:19:15.648Z,8.77
2018-03-18T14:21:43.086Z,8.10
2018-03-18T14:24:09.276Z,8.20
2018-03-18T14:26:35.687Z,7.77
2018-03-18T14:29:01.959Z,7.00
2018-03-18T14:31:28.237Z,8.33
2018-03-18T14:33:55.288Z,8.20
2018-03-18T14:36:21.459Z,7.07
2018-03-18T14:38:47.722Z,7.80
2018-03-18T14:41:13.970Z,7.17
2018-03-18T14:43:40.195Z,8.00
2018-03-18T14:46:06.368Z,7.80
2018-03-18T14:48:32.621Z,7.73
2018-03-18T14:50:58.865Z,7.83
2018-03-18T14:53:25.287Z,7.10
2018-03-18T14:55:51.472Z,7.33
2018-03-18T14:58:17.745Z,8.57
2018-03-18T15:00:43.935Z,8.43
2018-03-18T15:03:10.121Z,7.40
2018-03-18T15:05:36.384Z,8.70
2018-03-18T15:08:02.694Z,7.33
2018-03-18T15:10:28.889Z,9.10
2018-03-18T15:12:55.159Z,7.87
2018-03-18T15:15:21.519Z,8.73
2018-03-18T15:20:43.906Z,8.03
2018-03-18T15:23:18.991Z,6.93
2018-03-18T15:25:55.861Z,10.23
2018-03-18T15:28:22.068Z,7.77
2018-03-18T15:33:50.940Z,6.90
2018-03-18T15:36:28.466Z,11.47
2018-03-18T15:42:00.672Z,6.83
2018-03-18T15:47:29.985Z,8.03
2018-03-18T16:02:07.259Z,10.10
2018-03-18T16:10:43.143Z,10.50
2018-03-18T17:50:44.377Z,7.70
2018-03-18T17:53:22.702Z,9.57
2018-03-18T17:55:48.922Z,8.40
2018-03-18T17:58:15.078Z,7.83
2018-03-18T18:00:41.302Z,8.90
2018-03-18T18:03:07.493Z,7.77
2018-03-18T18:05:33.804Z,9.23
2018-03-18T18:08:00.509Z,7.90
2018-03-18T18:10:26.791Z,5.80
2018-03-18T18:12:53.012Z,8.13
2018-03-18T18:15:19.273Z,7.03
2018-03-18T18:17:45.529Z,6.90
2018-03-18T18:20:11.828Z,8.00
2018-03-18T18:22:38.224Z,8.40
2018-03-18T18:25:04.496Z,8.27
2018-03-18T18:27:30.762Z,7.37
2018-03-18T18:29:56.989Z,6.73
2018-03-18T18:32:23.258Z,7.47
2018-03-18T18:34:49.508Z,8.50
2018-03-18T18:37:16.007Z,8.27
2018-03-18T18:39:42.230Z,7.70
2018-03-18T18:42:08.558Z,6.87
2018-03-18T18:44:34.776Z,7.27
2018-03-18T18:47:00.945Z,7.50
2018-03-18T18:49:27.193Z,6.77
2018-03-18T18:51:53.433Z,7.23
2018-03-18T18:54:19.604Z,7.40
2018-03-18T18:56:45.810Z,7.00
2018-03-18T18:59:12.077Z,7.30
2018-03-18T19:01:38.334Z,6.97
2018-03-18T19:04:04.530Z,7.37
2018-03-18T19:06:30.837Z,6.90
2018-03-18T19:08:57.039Z,7.03
2018-03-18T19:11:23.282Z,6.10
2018-03-18T19:13:49.632Z,6.80
2018-03-18T19:16:16.038Z,6.13
2018-03-18T19:18:42.432Z,5.90
2018-03-18T19:21:08.715Z,6.50
2018-03-18T19:23:34.934Z,6.03
2018-03-18T19:26:01.219Z,6.23
2018-03-18T19:28:27.618Z,6.40
2018-03-18T19:30:53.958Z,5.87
2018-03-18T19:33:20.230Z,5.93
2018-03-18T19:35:46.685Z,5.90
2018-03-18T19:38:13.063Z,5.33
2018-03-18T19:40:39.350Z,6.10
2018-03-18T19:43:05.626Z,5.33
2018-03-18T19:45:31.990Z,6.20
2018-03-18T19:47:58.215Z,12.57
2018-03-18T19:50:24.484Z,5.83
2018-03-18T19:52:50.754Z,5.70
2018-03-18T19:55:16.947Z,5.73
2018-03-18T19:57:43.292Z,5.50
2018-03-18T20:00:09.509Z,6.37
2018-03-18T20:02:35.855Z,4.57
2018-03-18T20:05:02.074Z,4.87
2018-03-18T20:07:28.289Z,5.63
2018-03-18T20:09:54.576Z,5.00
2018-03-18T20:12:20.889Z,5.67
2018-03-18T20:14:47.041Z,6.70
2018-03-18T20:17:13.279Z,5.87
2018-03-18T20:19:39.578Z,5.23
2018-03-18T20:22:06.216Z,5.37
2018-03-18T20:24:32.502Z,5.13
2018-03-18T20:26:58.707Z,5.20
2018-03-18T20:29:24.965Z,5.00
2018-03-18T20:31:51.201Z,4.77
2018-03-18T20:34:17.517Z,5.23
2018-03-18T20:36:43.732Z,4.90
2018-03-18T20:39:09.972Z,5.40
2018-03-18T20:41:36.221Z,5.27
2018-03-18T20:44:02.474Z,11.57
2018-03-18T20:46:28.665Z,5.63
2018-03-18T20:48:54.824Z,5.33
2018-03-18T20:51:21.056Z,4.73
2018-03-18T20:53:47.227Z,5.27
2018-03-18T20:56:13.483Z,5.17
2018-03-18T20:58:39.674Z,5.17
2018-03-18T21:01:05.957Z,4.70
2018-03-18T21:03:32.176Z,5.80
2018-03-18T21:05:58.378Z,5.30
2018-03-18T21:08:24.583Z,4.97
2018-03-18T21:10:50.796Z,5.40
2018-03-18T21:13:17.061Z,5.23
2018-03-18T21:15:43.232Z,4.07
2018-03-18T21:18:09.431Z,5.33
2018-03-18T21:20:35.653Z,5.43
2018-03-18T21:23:01.899Z,4.40
2018-03-18T21:25:28.079Z,4.97
2018-03-18T21:27:54.272Z,4.67
2018-03-18T21:30:20.532Z,3.87
2018-03-18T21:32:46.761Z,4.50
2018-03-18T21:35:12.978Z,4.93
2018-03-18T21:37:39.263Z,4.50
2018-03-18T21:40:05.423Z,4.57
2018-03-18T21:42:31.663Z,4.73
2018-03-18T21:44:57.890Z,4.10
2018-03-18T21:47:24.118Z,3.90
2018-03-18T21:49:50.284Z,3.63
2018-03-18T21:52:16.523Z,4.23
2018-03-18T21:54:42.688Z,2.90
2018-03-18T21:57:08.852Z,5.30
2018-03-18T21:59:35.051Z,4.63
2018-03-18T22:02:01.510Z,4.07
2018-03-18T22:04:27.704Z,6.23
2018-03-18T22:06:53.906Z,3.90
2018-03-18T22:09:20.086Z,4.00
2018-03-18T22:11:46.279Z,4.83
2018-03-18T22:14:12.478Z,4.47
2018-03-18T22:16:38.635Z,4.10
2018-03-18T22:19:04.814Z,3.90
2018-03-18T22:21:31.099Z,4.43
2018-03-18T22:23:57.366Z,4.50
2018-03-18T22:26:23.524Z,4.20
2018-03-18T22:28:50.286Z,5.30
2018-03-18T22:31:16.497Z,4.97
2018-03-18T22:33:42.812Z,4.77
2018-03-18T22:36:09.009Z,4.90
2018-03-18T22:38:35.217Z,4.10
2018-03-18T22:41:01.409Z,4.17
2018-03-18T22:43:27.636Z,4.60
2018-03-18T22:45:53.818Z,3.90
2018-03-18T22:48:20.028Z,4.53
2018-03-18T22:50:46.297Z,4.10
2018-03-18T22:53:12.570Z,4.10
2018-03-18T22:55:38.764Z,3.97
2018-03-18T22:58:04.917Z,4.33
2018-03-18T23:00:32.054Z,4.00
2018-03-18T23:02:58.264Z,4.23
2018-03-18T23:05:24.440Z,4.13
2018-03-18T23:07:50.663Z,4.10
2018-03-18T23:10:16.825Z,3.63
2018-03-18T23:12:43.058Z,4.37
2018-03-18T23:15:09.261Z,4.00
2018-03-18T23:17:35.399Z,4.07
2018-03-18T23:20:01.559Z,4.40
2018-03-18T23:22:27.819Z,3.93
2018-03-18T23:24:53.963Z,4.13
2018-03-18T23:27:20.130Z,4.13
2018-03-18T23:29:46.326Z,4.30
2018-03-18T23:32:12.513Z,4.43
2018-03-18T23:34:38.681Z,4.17
2018-03-18T23:37:05.609Z,3.97
2018-03-18T23:39:31.877Z,3.87
2018-03-18T23:41:58.105Z,4.37
2018-03-18T23:44:24.304Z,3.90
2018-03-18T23:46:50.502Z,4.17
2018-03-18T23:49:16.752Z,4.03
2018-03-18T23:51:42.915Z,4.63
2018-03-18T23:54:09.123Z,4.07
2018-03-18T23:56:35.295Z,4.10
2018-03-18T23:59:01.486Z,4.30
